首页
METAR-TAF:

METAR-TAF

机场 :

哈爾科夫國際機場

哈爾科夫, 乌克兰

纬度: 49-58N, 经度: 036-08E, 海拔: 154米

当前天气观测

该预报发布于17分钟前的20:30 UTC
风速12节,风向西北
温度 1°C
湿度 86%
气压 1002 hPa
能见度10公里或以上
散云层高于1200英尺
阴天层高于1800英尺

METAR: UKHH 222030Z 31006MPS 9999 SCT012 OVC018 01/M01 Q1002 R25/290079 NOSIG

时间: 22:47 (20:47 UTC)

预报

该预报发布于3小时和37分钟前的17:10 UTC
预报有效从22日的 18点(UTC)到 23日的 18点(UTC)
风速14节,风向西,有时为25节阵风
能見度: 6000
阴天层高于600英尺
短暂存在
从 22日的 18点(UTC)到 22日的 24点(UTC)
能見度: 1200
多云层高于300英尺
多云层高于1500英尺, 积雨云.
小阵雪, 轻雾
几率 40% :
短暂存在
从 22日的 18点(UTC)到 22日的 24点(UTC)
风速17节,风向西转西北,有时为31节阵风
(小) 冻, 雨
短暂存在
从 23日的 00点(UTC)到 23日的 18点(UTC)
能見度: 2100
散云层高于300英尺
多云层高于1500英尺, 积雨云.
小阵雪, 轻雾
几率 40% :
短暂存在
从 23日的 00点(UTC)到 23日的 18点(UTC)
风速17节,风向西北,有时为31节阵风

TAF: UKHH 221710Z 2218/2318 27007G13MPS 6000 OVC006 TX01/2312Z TNM02/2304Z TEMPO 2218/2224 1200 -SHSN BR BKN003 BKN015CB PROB40 TEMPO 2218/2224 30009G16MPS -FZRA TEMPO 2300/2318 2100 -SHSN BR SCT003 BKN015CB PROB40 TEMPO 2300/2318 32009G16MPS

超过4000个机场的气象观测和天气预报(METAR&TAF报告)。

可查询的气象台以黄色和红色小点在地图上表示。

将鼠标移到小点上方,可查看气象台名称。

然后点击查看天气观测和预报。

如需切换地图:点击带黑十字的绿色按钮放大地图;点击带横线的绿色按钮缩小地图;或者点击绿色箭头查看邻近地区的地图。


METAR-TAF: